This is the latest recevied weather packets stored in our database for station/object DB0RES-5. If no packets are shown the sender has not sent any weather packets the latest 10 day(s).
| Time | Temp. | Humidity | Pressure | Rain* | Wind** | Luminosity | Snow |
|---|---|---|---|---|---|---|---|
| 1777914948 | 16.11° C | 81% | 1013.8 hPa | 0 mm | - | - | - |
| 1777914345 | 16.11° C | 79% | 1013.8 hPa | 0 mm | - | - | - |
| 1777913743 | 16.67° C | 78% | 1013.8 hPa | 0 mm | - | - | - |
| 1777913140 | 16.67° C | 77% | 1013.8 hPa | 0 mm | - | - | - |
| 1777912537 | 16.67° C | 76% | 1013.8 hPa | 0 mm | - | - | - |
| 1777911935 | 16.67° C | 75% | 1013.8 hPa | 0 mm | - | - | - |
| 1777911332 | 16.67° C | 75% | 1013.8 hPa | 0 mm | - | - | - |
| 1777910730 | 17.78° C | 74% | 1013.8 hPa | 0 mm | - | - | - |
| 1777910127 | 19.44° C | 67% | 1013.8 hPa | 0 mm | - | - | - |
| 1777909525 | 19.44° C | 66% | 1013.7 hPa | 0 mm | - | - | - |
| 1777908922 | 18.89° C | 67% | 1013.7 hPa | 0 mm | - | - | - |
| 1777908319 | 19.44° C | 67% | 1013.8 hPa | 0 mm | - | - | - |
| 1777907717 | 19.44° C | 69% | 1013.8 hPa | 0 mm | - | - | - |
| 1777907174 | 19.44° C | 68% | 1013.9 hPa | 0 mm | - | - | - |
| 1777906572 | 19.44° C | 68% | 1013.8 hPa | 0 mm | - | - | - |
| 1777905969 | 19.44° C | 68% | 1013.8 hPa | 0 mm | - | - | - |
| 1777905367 | 20° C | 68% | 1013.9 hPa | 0 mm | - | - | - |
| 1777904764 | 19.44° C | 69% | 1014.1 hPa | 0 mm | - | - | - |
| 1777904162 | 19.44° C | 69% | 1014 hPa | 0 mm | - | - | - |
| 1777903559 | 18.89° C | 68% | 1014.1 hPa | 0 mm | - | - | - |
| 1777902956 | 18.89° C | 70% | 1014.1 hPa | 0 mm | - | - | - |
| 1777902354 | 18.89° C | 70% | 1014.3 hPa | 0 mm | - | - | - |
| 1777901751 | 18.89° C | 70% | 1014.3 hPa | 0 mm | - | - | - |
| 1777901149 | 18.89° C | 70% | 1014.3 hPa | 0 mm | - | - | - |
| 1777900546 | 18.89° C | 70% | 1014.5 hPa | 0 mm | - | - | - |
* Rain latest hour (hover to see other rain measurements)
** Current wind speed in m/s (hover to see current wind gust speed)